Tropical Cyclones
[Index]
Main Index Home Page Stock Weather Photos Extreme Storms Discussion Storm News and Storm Chasing Reports Tropical Cyclones / Hurricanes / Typhoons Weather Data and Links Wild Fires / Bushfires Weather Observation Techniques Weather Picture Catalogue Tornado Pictures and Reports Stock Video Footage and DVDs for sale
Season 1980-1981 Tropical Cyclone NEIL Track Map
Season 1980-1981 Summaries: [BoM-AU] [JTWC-AU] [JTWC-SIO] [JTWC-SPAC] [JTWC-SH]
<<- Previous TC | BoM 1980-1981 Season | Next TC ->>

click for intensity scale information  Lat/long Grid: Show Hide

 Date Labels: Show Hide

Bureau of Meteorology Tropical Cyclone Data

Name: NEIL
Number: 617 / 198081_10

24 Feb 1981 00:00 UTC to 07 Mar 1981 00:00 UTC

    date/time    lat    long    hPa   cat  kts
1981-02-24 00   19.3   120.2   1003                     
1981-02-24 06   19.2   119.2   1001                     
1981-02-24 12   19.1   118.2    999                     
1981-02-24 18   18.9   117.2    996                     
1981-02-25 00   18.6   116.2    994    1                
1981-02-25 06   18.4   115.2    993    1                
1981-02-25 09   18.2   114.5    995    1                
1981-02-25 12   18.2   114.1    992    1                
1981-02-25 18   18.2   113.0    990    1                
1981-02-26 00   17.4   112.2    988    1                
1981-02-26 06   17.0   111.9    985    2                
1981-02-26 12   16.6   111.4    982    2                
1981-02-26 18   16.2   110.9    979    2                
1981-02-27 00   16.0   110.2    975    2                
1981-02-27 06   16.0   109.7    974    2                
1981-02-27 12   15.9   108.9    973    2                
1981-02-27 18   15.9   108.2    972    2                
1981-02-28 00   16.0   107.7    970    3                
1981-02-28 06   16.2   107.0    963    3                
1981-02-28 12   16.5   106.5    956    3                
1981-02-28 18   16.8   105.9    948    4                
1981-03-01 00   16.9   105.5    940    4                
1981-03-01 06   17.0   105.1    946    4                
1981-03-01 12   17.1   104.8    952    4                
1981-03-01 18   17.2   104.5    958    3                
1981-03-02 00   17.5   104.3    965    3                
1981-03-02 06   17.7   104.3    967    3                
1981-03-02 12   17.8   104.4    969    3                
1981-03-02 18   17.9   104.5    972    2                
1981-03-03 00   18.0   104.7    975    2                
1981-03-03 06   18.1   104.9    975    2                
1981-03-03 12   18.2   105.2    975    2                
1981-03-03 18   18.3   105.7    975    2                
1981-03-04 00   18.7   106.1    975    2                
1981-03-04 06   19.3   106.8    975    2                
1981-03-04 12   20.0   107.6    975    2                
1981-03-04 18   20.3   108.7    975    2                
1981-03-05 00   20.9   110.0    975    2                
1981-03-05 06   21.5   111.3    978    2                
1981-03-05 12   22.3   113.0    981    2                
1981-03-05 14   22.7   113.7    980    2                
1981-03-05 18   23.4   115.0    984    2                
1981-03-06 00   24.3   117.7    988    1                
1981-03-06 06   25.0   119.8    994    1                
1981-03-06 12   25.7   121.3    998                     
1981-03-06 18   26.0   124.4   1002                     
1981-03-07 00   26.3   126.4   1005                     
Winds are 10-min average.

Tropical cyclone tracks developed by Michael Bath using data from the Bureau of Meteorology and Google Maps.


[Australian Severe Weather index] [Copyright Notice] [Email Contacts] [Search This Site] [Privacy Policy]
Document: tropical_cyclone_neil.htm Updated: 30 May 2013